createdAt,value
2022-09-12T00:01:19.196Z,10.55
2022-09-12T00:03:45.940Z,10.60
2022-09-12T00:06:22.929Z,10.27
2022-09-12T00:08:50.421Z,10.35
2022-09-12T00:11:16.957Z,14.43
2022-09-12T00:13:43.595Z,11.65
2022-09-12T00:16:19.206Z,12.50
2022-09-12T00:18:46.054Z,12.02
2022-09-12T00:21:12.954Z,12.07
2022-09-12T00:23:39.292Z,10.60
2022-09-12T00:26:07.155Z,9.98
2022-09-12T00:28:35.724Z,10.18
2022-09-12T00:31:05.722Z,11.50
2022-09-12T00:33:32.391Z,10.93
2022-09-12T00:35:58.782Z,12.23
2022-09-12T00:38:25.100Z,10.80
2022-09-12T00:40:51.521Z,11.73
2022-09-12T00:43:29.756Z,11.02
2022-09-12T00:45:58.371Z,11.02
2022-09-12T00:48:33.619Z,13.27
2022-09-12T00:51:00.753Z,12.45
2022-09-12T00:53:27.782Z,18.45
2022-09-12T00:55:55.947Z,12.70
2022-09-12T00:58:27.069Z,18.55
2022-09-12T01:00:53.662Z,20.63
2022-09-12T01:03:23.034Z,15.82
2022-09-12T01:05:56.455Z,13.68
2022-09-12T01:08:23.431Z,11.50
2022-09-12T01:10:49.927Z,10.27
2022-09-12T01:13:16.743Z,10.10
2022-09-12T01:15:43.166Z,9.30
2022-09-12T01:18:32.210Z,12.05
2022-09-12T01:21:17.444Z,10.23
2022-09-12T01:23:43.741Z,10.90
2022-09-12T01:26:35.262Z,10.82
2022-09-12T01:29:37.468Z,17.65
2022-09-12T01:32:15.392Z,12.48
2022-09-12T01:35:02.451Z,10.98
2022-09-12T01:37:39.253Z,19.27
2022-09-12T01:40:11.712Z,14.20
2022-09-12T01:42:54.957Z,19.60
2022-09-12T01:45:28.989Z,15.15
2022-09-12T01:48:13.512Z,14.40
2022-09-12T01:50:46.644Z,12.70
2022-09-12T01:53:21.022Z,14.35
2022-09-12T01:56:13.211Z,13.35
2022-09-12T01:59:02.642Z,12.77
2022-09-12T02:01:32.748Z,12.50
2022-09-12T02:04:11.340Z,12.65
2022-09-12T02:06:48.634Z,14.52
2022-09-12T02:09:34.256Z,17.05
2022-09-12T02:12:01.539Z,16.88
2022-09-12T02:14:32.191Z,15.05
2022-09-12T02:17:14.688Z,15.93
2022-09-12T02:19:46.374Z,14.52
2022-09-12T02:22:17.660Z,10.05
2022-09-12T02:24:48.000Z,14.30
2022-09-12T02:27:18.066Z,14.70
2022-09-12T02:29:45.498Z,20.23
2022-09-12T02:32:29.865Z,17.60
2022-09-12T02:35:14.624Z,16.45
2022-09-12T02:38:09.899Z,13.10
2022-09-12T02:40:37.255Z,11.20
2022-09-12T02:43:05.149Z,11.02
2022-09-12T02:45:32.842Z,11.27
2022-09-12T02:48:16.830Z,14.93
2022-09-12T02:50:43.475Z,13.68
2022-09-12T02:53:10.566Z,15.18
2022-09-12T02:55:39.245Z,13.85
2022-09-12T02:58:10.383Z,13.23
2022-09-12T03:01:02.817Z,13.50
2022-09-12T03:03:49.971Z,12.55
2022-09-12T03:06:23.279Z,12.68
2022-09-12T03:09:05.057Z,11.98
2022-09-12T03:11:34.163Z,10.43
2022-09-12T03:14:23.043Z,10.13
2022-09-12T03:16:49.480Z,9.95
2022-09-12T03:19:20.989Z,9.90
2022-09-12T03:22:09.077Z,10.18
2022-09-12T03:24:40.888Z,9.55
2022-09-12T03:27:17.051Z,8.52
2022-09-12T03:29:45.507Z,11.07
2022-09-12T03:32:11.850Z,13.88
2022-09-12T03:34:38.194Z,8.88
2022-09-12T03:37:04.827Z,8.77
2022-09-12T03:39:31.151Z,8.75
2022-09-12T03:41:57.652Z,10.13
2022-09-12T03:44:24.802Z,9.27
2022-09-12T03:46:51.402Z,9.30
2022-09-12T03:49:17.719Z,9.75
2022-09-12T03:51:44.286Z,9.30
2022-09-12T03:54:11.264Z,19.08
2022-09-12T03:56:37.711Z,10.32
2022-09-12T03:59:07.272Z,15.45
2022-09-12T04:01:34.411Z,11.43
2022-09-12T04:04:00.816Z,9.00
2022-09-12T04:06:27.167Z,9.43
2022-09-12T04:08:54.864Z,9.57
2022-09-12T04:11:22.846Z,10.35
2022-09-12T04:13:49.797Z,10.95
2022-09-12T04:16:17.304Z,12.05
2022-09-12T04:18:43.958Z,11.90
2022-09-12T04:21:16.716Z,9.93
2022-09-12T04:23:43.641Z,11.10
2022-09-12T04:26:10.496Z,11.48
2022-09-12T04:28:38.369Z,13.02
2022-09-12T04:31:08.163Z,12.50
2022-09-12T04:33:37.223Z,10.75
2022-09-12T04:36:05.786Z,10.85
2022-09-12T04:38:33.115Z,10.93
2022-09-12T04:40:59.464Z,9.68
2022-09-12T04:43:25.836Z,10.75
2022-09-12T04:45:52.371Z,10.20
2022-09-12T04:48:18.737Z,12.30
2022-09-12T04:50:45.070Z,12.88
2022-09-12T04:53:11.400Z,12.63
2022-09-12T04:55:37.733Z,11.23
2022-09-12T04:58:04.051Z,11.52
2022-09-12T05:00:30.372Z,11.57
2022-09-12T05:02:56.678Z,10.88
2022-09-12T05:05:23.036Z,10.90
2022-09-12T05:07:49.372Z,9.80
2022-09-12T05:10:15.818Z,9.27
2022-09-12T05:12:42.139Z,11.13
2022-09-12T05:15:09.083Z,10.05
2022-09-12T05:17:35.429Z,10.02
2022-09-12T05:20:02.670Z,8.32
2022-09-12T05:22:28.986Z,9.32
2022-09-12T05:24:55.352Z,9.88
2022-09-12T05:27:21.700Z,10.77
2022-09-12T05:29:48.025Z,10.38
2022-09-12T05:32:14.339Z,9.98
2022-09-12T05:34:40.708Z,10.23
2022-09-12T05:37:07.057Z,12.45
2022-09-12T05:39:33.342Z,11.85
2022-09-12T05:41:59.669Z,10.95
2022-09-12T05:44:26.032Z,10.93
2022-09-12T05:46:52.321Z,10.93
2022-09-12T05:49:18.681Z,9.55
2022-09-12T05:51:45.966Z,9.00
2022-09-12T05:54:15.135Z,9.77
2022-09-12T05:56:43.833Z,9.82
2022-09-12T05:59:13.627Z,9.55
2022-09-12T06:01:40.733Z,9.90
2022-09-12T06:04:07.520Z,9.93
2022-09-12T06:06:37.624Z,10.73
2022-09-12T06:09:05.542Z,11.05
2022-09-12T06:11:34.081Z,11.43
2022-09-12T06:14:01.110Z,10.95
2022-09-12T06:16:29.998Z,11.65
2022-09-12T06:18:59.046Z,11.07
2022-09-12T06:21:26.687Z,12.82
2022-09-12T06:23:56.874Z,13.77
2022-09-12T06:26:23.406Z,13.70
2022-09-12T06:28:51.886Z,15.32
2022-09-12T06:31:20.878Z,16.65
2022-09-12T06:33:50.102Z,18.25
2022-09-12T06:36:22.021Z,18.30
2022-09-12T06:38:48.875Z,19.50
2022-09-12T06:41:15.586Z,20.77
2022-09-12T06:43:42.573Z,20.08
2022-09-12T06:46:10.019Z,20.40
2022-09-12T06:48:41.523Z,19.48
2022-09-12T06:51:13.509Z,18.05
2022-09-12T06:53:40.231Z,20.83
2022-09-12T06:56:08.887Z,22.42
2022-09-12T06:58:36.211Z,24.63
2022-09-12T07:01:24.532Z,23.17
2022-09-12T07:03:55.548Z,22.48
2022-09-12T07:06:24.130Z,21.58
2022-09-12T07:08:50.541Z,21.95
2022-09-12T07:11:20.016Z,19.90
2022-09-12T07:13:50.412Z,20.23
2022-09-12T07:16:19.951Z,20.65
2022-09-12T07:18:54.139Z,19.63
2022-09-12T07:21:21.106Z,19.38
2022-09-12T07:23:48.367Z,18.23
2022-09-12T07:26:16.296Z,18.55
2022-09-12T07:28:42.843Z,18.95
2022-09-12T07:31:15.706Z,19.23
2022-09-12T07:33:43.080Z,19.23
2022-09-12T07:36:14.737Z,19.33
2022-09-12T07:38:41.952Z,20.05
2022-09-12T07:41:18.455Z,19.13
2022-09-12T07:43:45.276Z,19.10
2022-09-12T07:46:12.388Z,19.92
2022-09-12T07:48:39.553Z,19.52
2022-09-12T07:51:08.053Z,19.25
2022-09-12T07:53:37.143Z,20.77
2022-09-12T07:56:04.490Z,20.23
2022-09-12T07:58:32.514Z,18.50
2022-09-12T08:01:06.289Z,19.30
2022-09-12T08:03:32.643Z,20.48
2022-09-12T08:06:09.743Z,19.83
2022-09-12T08:08:36.804Z,19.83
2022-09-12T08:11:06.020Z,19.52
2022-09-12T08:13:34.369Z,20.67
2022-09-12T08:16:03.163Z,19.52
2022-09-12T08:18:30.798Z,20.10
2022-09-12T08:20:59.273Z,20.42
2022-09-12T08:23:26.173Z,20.15
2022-09-12T08:25:55.935Z,20.25
2022-09-12T08:28:22.377Z,20.83
2022-09-12T08:30:48.733Z,19.80
2022-09-12T08:33:15.076Z,20.17
2022-09-12T08:35:41.410Z,20.38
2022-09-12T08:38:07.737Z,20.20
2022-09-12T08:40:46.823Z,20.48
2022-09-12T08:43:33.725Z,19.38
2022-09-12T08:46:16.732Z,19.50
2022-09-12T08:48:50.227Z,20.42
2022-09-12T08:51:20.034Z,20.08
2022-09-12T08:53:49.004Z,20.23
2022-09-12T08:56:15.397Z,19.65
2022-09-12T08:58:44.252Z,19.50
2022-09-12T09:01:33.351Z,20.08
2022-09-12T09:04:26.904Z,20.15
2022-09-12T09:07:08.276Z,19.58
2022-09-12T09:09:49.823Z,20.20
2022-09-12T09:12:25.296Z,19.65
2022-09-12T09:14:59.859Z,18.27
2022-09-12T09:17:41.219Z,17.88
2022-09-12T09:20:34.597Z,18.88
2022-09-12T09:23:12.684Z,17.15
2022-09-12T09:26:09.943Z,18.42
2022-09-12T09:28:42.553Z,18.45
2022-09-12T09:31:16.753Z,18.10
2022-09-12T09:33:44.328Z,17.38
2022-09-12T09:36:49.948Z,17.38
2022-09-12T09:39:28.505Z,17.67
2022-09-12T09:42:10.335Z,17.60
2022-09-12T09:44:37.005Z,17.33
2022-09-12T09:47:03.436Z,17.40
2022-09-12T09:49:33.658Z,16.90
2022-09-12T09:52:00.956Z,15.43
2022-09-12T09:54:40.687Z,15.32
2022-09-12T09:57:34.800Z,16.15
2022-09-12T10:00:24.272Z,15.75
2022-09-12T10:03:21.768Z,16.05
2022-09-12T10:05:51.502Z,16.25
2022-09-12T10:08:30.068Z,15.98
2022-09-12T10:11:06.115Z,15.82
2022-09-12T10:13:39.516Z,15.35
2022-09-12T10:16:17.518Z,15.18
2022-09-12T10:18:43.945Z,14.27
2022-09-12T10:21:21.779Z,14.65
2022-09-12T10:23:58.001Z,14.38
2022-09-12T10:26:24.444Z,14.15
2022-09-12T10:28:53.724Z,13.73
2022-09-12T10:31:26.462Z,12.80
2022-09-12T10:33:52.977Z,12.80
2022-09-12T10:36:20.763Z,13.20
2022-09-12T10:39:01.212Z,10.48
2022-09-12T10:41:36.458Z,10.85
2022-09-12T10:44:16.061Z,10.48
2022-09-12T10:46:42.358Z,10.15
2022-09-12T10:49:14.591Z,11.07
2022-09-12T10:51:40.953Z,9.68
2022-09-12T10:54:10.635Z,10.88
2022-09-12T10:56:44.597Z,8.38
2022-09-12T10:59:43.117Z,9.10
2022-09-12T11:02:18.722Z,8.73
2022-09-12T11:05:14.295Z,8.63
2022-09-12T11:10:44.445Z,9.32
2022-09-12T11:13:20.028Z,6.80
2022-09-12T11:16:09.347Z,4.72
2022-09-12T11:19:06.917Z,4.30
2022-09-12T11:22:16.451Z,4.40
2022-09-12T11:25:10.426Z,4.13
2022-09-12T11:28:14.046Z,3.95
2022-09-12T11:31:20.248Z,4.20
2022-09-12T11:33:52.407Z,4.72
2022-09-12T11:36:41.303Z,4.13
2022-09-12T11:39:14.637Z,4.40
2022-09-12T11:42:04.270Z,3.70
2022-09-12T11:44:40.425Z,3.60
2022-09-12T11:47:14.283Z,4.05
2022-09-12T11:49:47.029Z,3.42
2022-09-12T11:52:25.420Z,4.10
2022-09-12T11:54:57.490Z,4.15
2022-09-12T11:57:39.220Z,3.67
2022-09-12T12:00:15.864Z,3.55
2022-09-12T12:03:04.713Z,3.70
2022-09-12T12:05:37.249Z,3.55
2022-09-12T12:08:06.371Z,3.50
2022-09-12T12:10:37.752Z,3.17
2022-09-12T12:13:18.256Z,2.70
2022-09-12T12:15:48.417Z,3.10
2022-09-12T12:18:29.672Z,3.55
2022-09-12T12:21:15.606Z,3.40
2022-09-12T12:24:03.684Z,2.75
2022-09-12T12:26:38.876Z,3.00
2022-09-12T12:29:31.568Z,3.75
2022-09-12T12:32:03.564Z,3.70
2022-09-12T12:34:41.045Z,3.30
2022-09-12T12:37:19.577Z,3.20
2022-09-12T12:39:45.915Z,3.67
2022-09-12T12:42:35.133Z,3.20
2022-09-12T12:45:16.741Z,3.63
2022-09-12T12:47:47.487Z,2.90
2022-09-12T12:50:16.842Z,2.83
2022-09-12T12:52:59.867Z,2.95
2022-09-12T12:55:46.022Z,2.97
2022-09-12T12:58:27.011Z,3.20
2022-09-12T13:01:16.776Z,2.83
2022-09-12T13:03:54.422Z,2.80
2022-09-12T13:09:27.622Z,3.00
2022-09-12T13:12:05.275Z,3.65
2022-09-12T13:14:48.078Z,3.40
2022-09-12T13:17:21.794Z,3.97
2022-09-12T13:19:49.743Z,3.63
2022-09-12T13:22:16.190Z,3.63
2022-09-12T13:24:44.211Z,3.83
2022-09-12T13:27:23.249Z,3.85
2022-09-12T13:29:50.076Z,3.78
2022-09-12T13:32:18.212Z,3.50
2022-09-12T13:35:01.305Z,3.60
2022-09-12T13:37:47.580Z,3.55
2022-09-12T13:40:41.027Z,3.28
2022-09-12T13:43:29.205Z,3.22
2022-09-12T13:45:55.638Z,3.25
2022-09-12T13:48:25.163Z,3.60
2022-09-12T13:50:54.143Z,2.75
2022-09-12T13:53:23.717Z,3.35
2022-09-12T13:55:53.534Z,3.05
2022-09-12T13:58:24.432Z,3.15
2022-09-12T14:01:06.197Z,3.13
2022-09-12T14:03:38.639Z,2.95
2022-09-12T14:06:05.026Z,4.13
2022-09-12T14:08:31.540Z,4.07
2022-09-12T14:10:57.956Z,3.97
2022-09-12T14:13:26.571Z,4.00
2022-09-12T14:15:55.723Z,3.55
2022-09-12T14:18:30.600Z,3.60
2022-09-12T14:21:08.579Z,3.28
2022-09-12T14:23:36.087Z,3.95
2022-09-12T14:26:04.308Z,3.53
2022-09-12T14:28:31.940Z,3.58
2022-09-12T14:31:22.755Z,3.55
2022-09-12T14:33:53.493Z,3.85
2022-09-12T14:36:40.213Z,3.97
2022-09-12T14:39:18.108Z,3.70
2022-09-12T14:41:44.956Z,3.65
2022-09-12T14:44:17.834Z,3.72
2022-09-12T14:46:44.805Z,3.42
2022-09-12T14:49:19.354Z,3.60
2022-09-12T14:51:57.901Z,3.92
2022-09-12T14:54:44.505Z,3.95
2022-09-12T14:57:30.615Z,3.45
2022-09-12T15:00:26.539Z,3.55
2022-09-12T15:02:53.479Z,3.35
2022-09-12T15:05:23.702Z,3.53
2022-09-12T15:07:58.714Z,3.67
2022-09-12T15:10:28.031Z,3.50
2022-09-12T15:13:09.424Z,3.60
2022-09-12T15:15:38.079Z,3.45
2022-09-12T15:18:06.807Z,3.83
2022-09-12T15:20:36.142Z,3.40
2022-09-12T15:23:02.502Z,3.10
2022-09-12T15:25:28.825Z,3.17
2022-09-12T15:27:55.208Z,3.17
2022-09-12T15:30:21.836Z,3.58
2022-09-12T15:32:48.138Z,3.50
2022-09-12T15:35:23.600Z,3.50
2022-09-12T15:37:50.040Z,3.38
2022-09-12T15:40:17.014Z,3.22
2022-09-12T15:42:43.583Z,3.67
2022-09-12T15:45:22.504Z,3.72
2022-09-12T15:47:48.993Z,3.33
2022-09-12T15:50:15.380Z,3.55
2022-09-12T15:52:42.375Z,3.60
2022-09-12T15:55:21.152Z,3.17
2022-09-12T15:57:47.750Z,3.30
2022-09-12T16:00:15.368Z,3.40
2022-09-12T16:02:41.774Z,3.13
2022-09-12T16:05:14.276Z,3.28
2022-09-12T16:07:40.603Z,3.50
2022-09-12T16:10:07.445Z,3.40
2022-09-12T16:12:33.800Z,3.47
2022-09-12T16:15:00.111Z,3.10
2022-09-12T16:17:26.466Z,3.40
2022-09-12T16:19:52.811Z,3.40
2022-09-12T16:22:19.128Z,3.25
2022-09-12T16:24:45.435Z,3.28
2022-09-12T16:27:12.002Z,3.40
2022-09-12T16:29:38.377Z,3.13
2022-09-12T16:32:04.818Z,3.30
2022-09-12T16:34:31.147Z,3.60
2022-09-12T16:36:57.456Z,3.42
2022-09-12T16:39:23.768Z,3.28
2022-09-12T16:41:50.111Z,3.55
2022-09-12T16:44:16.398Z,3.42
2022-09-12T16:46:42.770Z,3.30
2022-09-12T16:49:10.171Z,3.40
2022-09-12T16:51:36.516Z,3.50
2022-09-12T16:54:02.894Z,3.42
2022-09-12T16:56:29.658Z,3.25
2022-09-12T16:58:56.022Z,3.58
2022-09-12T17:01:24.532Z,3.67
2022-09-12T17:03:58.741Z,4.25
2022-09-12T17:06:26.126Z,3.90
2022-09-12T17:08:54.293Z,3.90
2022-09-12T17:11:24.223Z,3.40
2022-09-12T17:14:05.048Z,3.70
2022-09-12T17:16:34.356Z,3.80
2022-09-12T17:19:00.682Z,3.75
2022-09-12T17:21:27.050Z,4.30
2022-09-12T17:23:53.597Z,3.85
2022-09-12T17:26:20.327Z,4.10
2022-09-12T17:28:46.655Z,4.10
2022-09-12T17:31:14.550Z,4.18
2022-09-12T17:33:41.383Z,3.92
2022-09-12T17:36:11.199Z,4.45
2022-09-12T17:38:39.492Z,4.25
2022-09-12T17:41:15.133Z,4.43
2022-09-12T17:43:42.139Z,4.28
2022-09-12T17:46:08.618Z,4.90
2022-09-12T17:48:35.321Z,4.75
2022-09-12T17:51:09.875Z,5.30
2022-09-12T17:53:36.246Z,5.53
2022-09-12T17:56:03.857Z,5.70
2022-09-12T17:58:32.329Z,6.05
2022-09-12T18:01:06.719Z,6.07
2022-09-12T18:03:33.023Z,6.03
2022-09-12T18:05:59.332Z,6.00
2022-09-12T18:08:25.697Z,5.40
2022-09-12T18:10:52.068Z,4.63
2022-09-12T18:13:18.515Z,4.00
2022-09-12T18:15:44.953Z,4.63
2022-09-12T18:18:11.332Z,4.60
2022-09-12T18:20:37.648Z,4.70
2022-09-12T18:23:03.983Z,4.60
2022-09-12T18:25:30.292Z,4.60
2022-09-12T18:27:56.587Z,4.20
2022-09-12T18:30:22.966Z,4.47
2022-09-12T18:32:49.331Z,5.38
2022-09-12T18:35:15.855Z,5.22
2022-09-12T18:37:42.822Z,5.47
2022-09-12T18:40:10.000Z,5.65
2022-09-12T18:42:36.345Z,6.00
2022-09-12T18:45:02.669Z,5.25
2022-09-12T18:47:28.982Z,5.15
2022-09-12T18:49:55.308Z,4.60
2022-09-12T18:52:21.598Z,4.38
2022-09-12T18:54:47.900Z,4.13
2022-09-12T18:57:14.218Z,4.45
2022-09-12T18:59:40.507Z,4.85
2022-09-12T19:02:06.967Z,4.85
2022-09-12T19:04:33.345Z,5.28
2022-09-12T19:06:59.652Z,5.00
2022-09-12T19:09:26.043Z,5.10
2022-09-12T19:11:52.363Z,4.32
2022-09-12T19:14:20.997Z,4.72
2022-09-12T19:16:47.293Z,4.28
2022-09-12T19:19:13.684Z,4.15
2022-09-12T19:21:39.978Z,4.22
2022-09-12T19:24:08.563Z,4.88
2022-09-12T19:26:36.326Z,4.70
2022-09-12T19:29:03.117Z,5.35
2022-09-12T19:31:30.462Z,5.28
2022-09-12T19:34:05.002Z,5.45
2022-09-12T19:36:45.045Z,6.10
2022-09-12T19:39:13.192Z,7.13
2022-09-12T19:41:39.579Z,7.43
2022-09-12T19:44:06.134Z,6.88
2022-09-12T19:46:32.699Z,6.82
2022-09-12T19:48:59.080Z,7.72
2022-09-12T19:51:25.511Z,9.70
2022-09-12T19:53:52.327Z,8.25
2022-09-12T19:56:19.399Z,8.18
2022-09-12T19:58:49.846Z,8.27
2022-09-12T20:01:22.695Z,8.35
2022-09-12T20:03:49.102Z,6.80
2022-09-12T20:06:17.349Z,7.05
2022-09-12T20:08:43.845Z,7.10
2022-09-12T20:11:12.526Z,6.90
2022-09-12T20:13:38.896Z,7.72
2022-09-12T20:16:30.434Z,8.32
2022-09-12T20:19:00.255Z,8.10
2022-09-12T20:21:28.845Z,7.40
2022-09-12T20:23:55.174Z,7.18
2022-09-12T20:26:21.465Z,8.75
2022-09-12T20:28:48.003Z,8.65
2022-09-12T20:31:15.673Z,9.13
2022-09-12T20:33:42.975Z,9.60
2022-09-12T20:36:12.176Z,8.02
2022-09-12T20:38:38.868Z,8.38
2022-09-12T20:41:07.590Z,8.48
2022-09-12T20:43:33.944Z,8.77
2022-09-12T20:46:04.861Z,9.20
2022-09-12T20:48:31.179Z,8.40
2022-09-12T20:51:00.685Z,8.68
2022-09-12T20:53:30.646Z,9.80
2022-09-12T20:56:00.814Z,8.43
2022-09-12T20:58:27.125Z,8.45
2022-09-12T21:00:53.612Z,7.90
2022-09-12T21:03:19.945Z,8.52
2022-09-12T21:05:46.570Z,8.60
2022-09-12T21:08:14.155Z,7.45
2022-09-12T21:10:41.486Z,6.97
2022-09-12T21:13:12.458Z,8.15
2022-09-12T21:15:40.263Z,9.00
2022-09-12T21:18:07.158Z,8.40
2022-09-12T21:20:33.688Z,7.93
2022-09-12T21:23:00.130Z,8.98
2022-09-12T21:25:26.544Z,7.70
2022-09-12T21:27:52.916Z,7.95
2022-09-12T21:30:19.229Z,8.52
2022-09-12T21:32:45.587Z,8.77
2022-09-12T21:35:11.900Z,7.35
2022-09-12T21:37:38.471Z,8.65
2022-09-12T21:40:05.189Z,8.60
2022-09-12T21:42:31.530Z,8.13
2022-09-12T21:44:57.838Z,10.77
2022-09-12T21:47:24.159Z,10.20
2022-09-12T21:49:50.524Z,9.25
2022-09-12T21:52:16.858Z,10.13
2022-09-12T21:54:43.193Z,8.30
2022-09-12T21:57:09.510Z,9.52
2022-09-12T21:59:35.812Z,9.73
2022-09-12T22:02:02.194Z,9.23
2022-09-12T22:04:28.542Z,8.25
2022-09-12T22:06:54.846Z,8.63
2022-09-12T22:09:21.139Z,9.40
2022-09-12T22:11:47.607Z,9.63
2022-09-12T22:14:13.895Z,10.10
2022-09-12T22:16:40.261Z,10.65
2022-09-12T22:19:06.602Z,9.73
2022-09-12T22:21:32.892Z,10.30
2022-09-12T22:23:59.319Z,10.43
2022-09-12T22:26:25.672Z,9.48
2022-09-12T22:28:52.027Z,9.05
2022-09-12T22:31:18.773Z,8.98
2022-09-12T22:33:45.103Z,8.45
2022-09-12T22:36:11.645Z,9.15
2022-09-12T22:38:37.983Z,8.82
2022-09-12T22:41:10.411Z,9.18
2022-09-12T22:43:36.972Z,9.02
2022-09-12T22:46:11.138Z,9.10
2022-09-12T22:48:37.781Z,9.63
2022-09-12T22:51:05.182Z,10.25
2022-09-12T22:53:31.850Z,11.15
2022-09-12T22:55:58.368Z,9.63
2022-09-12T22:58:24.756Z,9.65
2022-09-12T23:00:52.046Z,10.05
2022-09-12T23:03:19.292Z,9.07
2022-09-12T23:05:46.644Z,10.23
2022-09-12T23:08:14.367Z,10.82
2022-09-12T23:10:40.728Z,11.07
2022-09-12T23:13:07.367Z,9.90
2022-09-12T23:15:33.708Z,10.30
2022-09-12T23:18:00.079Z,10.45
2022-09-12T23:20:28.095Z,10.32
2022-09-12T23:22:54.516Z,9.88
2022-09-12T23:25:22.185Z,10.57
2022-09-12T23:27:48.576Z,10.23
2022-09-12T23:30:15.023Z,10.27
2022-09-12T23:32:41.332Z,10.75
2022-09-12T23:35:07.717Z,10.35
2022-09-12T23:37:34.007Z,10.57
2022-09-12T23:40:00.402Z,9.88
2022-09-12T23:42:26.795Z,10.23
2022-09-12T23:44:53.098Z,10.52
2022-09-12T23:47:19.416Z,9.68
2022-09-12T23:49:45.746Z,10.18
2022-09-12T23:52:12.096Z,10.30
2022-09-12T23:54:38.391Z,9.57
2022-09-12T23:57:04.791Z,8.68
2022-09-12T23:59:31.124Z,8.55
